Time;durP1;ratioP1;P1;durP2;ratioP2;P2;SDS_P1;SDS_P2;PMS_P1;PMS_P2;Temp;Humidity;BMP_temperature;BMP_pressure;BME280_temperature;BME280_humidity;BME280_pressure;Samples;Min_cycle;Max_cycle;Signal;HPM_P1;HPM_P2
2023/07/17 00:00:38;;;;;;;17.70;14.03;;;;;;;;;;5035523;28;20476;-78
2023/07/17 00:03:06;;;;;;;19.30;14.30;;;;;;;;;;5035735;28;20453;-78
2023/07/17 00:05:33;;;;;;;19.93;12.40;;;;;;;;;;5035711;28;20923;-77
2023/07/17 00:08:01;;;;;;;10.80;9.70;;;;;;;;;;5035524;28;20457;-76
2023/07/17 00:10:28;;;;;;;12.10;10.80;;;;;;;;;;5035110;28;20478;-77
2023/07/17 00:12:56;;;;;;;15.20;10.80;;;;;;;;;;5035574;28;20998;-77
2023/07/17 00:15:23;;;;;;;11.37;9.43;;;;;;;;;;5035570;28;20441;-77
2023/07/17 00:17:50;;;;;;;10.93;9.90;;;;;;;;;;5035783;28;20488;-77
2023/07/17 00:20:20;;;;;;;13.63;9.40;;;;;;;;;;5035464;28;20446;-77
2023/07/17 00:22:47;;;;;;;10.20;9.20;;;;;;;;;;5035171;28;20545;-77
2023/07/17 00:25:14;;;;;;;12.87;9.10;;;;;;;;;;5035360;28;20446;-77
2023/07/17 00:27:43;;;;;;;10.73;9.63;;;;;;;;;;5035203;28;20533;-76
2023/07/17 00:30:12;;;;;;;10.73;9.70;;;;;;;;;;5034751;28;20454;-76
2023/07/17 00:32:39;;;;;;;10.93;9.43;;;;;;;;;;5034799;28;20485;-77
2023/07/17 00:35:06;;;;;;;11.30;9.27;;;;;;;;;;5034964;28;20454;-77
2023/07/17 00:37:33;;;;;;;17.63;10.13;;;;;;;;;;5034679;28;20457;-77
2023/07/17 00:40:01;;;;;;;10.50;9.50;;;;;;;;;;5035128;28;20477;-77
2023/07/17 00:42:28;;;;;;;11.60;10.60;;;;;;;;;;5034457;28;20481;-77
2023/07/17 00:44:55;;;;;;;11.13;10.03;;;;;;;;;;5034746;28;20453;-76
2023/07/17 00:47:23;;;;;;;11.80;10.40;;;;;;;;;;5034764;28;20890;-76
2023/07/17 00:49:51;;;;;;;11.87;9.93;;;;;;;;;;5034782;28;20461;-76
2023/07/17 00:52:18;;;;;;;11.93;10.83;;;;;;;;;;5034588;28;20465;-76
2023/07/17 00:54:46;;;;;;;12.47;10.60;;;;;;;;;;5034465;28;20490;-76
2023/07/17 00:57:14;;;;;;;11.70;10.53;;;;;;;;;;5034589;28;20931;-76
2023/07/17 00:59:42;;;;;;;11.43;10.23;;;;;;;;;;5034508;28;20446;-76
2023/07/17 01:02:09;;;;;;;11.13;10.00;;;;;;;;;;5034422;28;20469;-76
2023/07/17 01:07:41;;;;;;;11.87;10.63;;;;;;;;;;5034663;28;20397;-76
2023/07/17 01:10:09;;;;;;;15.70;11.13;;;;;;;;;;5034225;28;20981;-77
2023/07/17 01:12:37;;;;;;;15.20;11.40;;;;;;;;;;5034122;28;20449;-76
2023/07/17 01:15:04;;;;;;;12.90;11.60;;;;;;;;;;5034136;28;20821;-77
2023/07/17 01:17:31;;;;;;;16.93;10.43;;;;;;;;;;5034095;28;20479;-76
2023/07/17 01:19:59;;;;;;;12.07;10.70;;;;;;;;;;5033403;28;20453;-76
2023/07/17 01:22:28;;;;;;;12.53;11.30;;;;;;;;;;5033521;28;20994;-76
2023/07/17 01:24:56;;;;;;;13.10;9.80;;;;;;;;;;5034272;28;20461;-77
2023/07/17 01:27:23;;;;;;;12.50;10.20;;;;;;;;;;5033617;28;20458;-76
2023/07/17 01:29:50;;;;;;;15.53;10.73;;;;;;;;;;5033935;28;20816;-77
2023/07/17 01:32:20;;;;;;;10.20;9.33;;;;;;;;;;5033444;28;20485;-76
2023/07/17 01:34:47;;;;;;;11.73;10.40;;;;;;;;;;5033423;28;20493;-77
2023/07/17 01:37:14;;;;;;;12.77;11.43;;;;;;;;;;5033936;28;20939;-77
2023/07/17 01:39:41;;;;;;;10.70;9.10;;;;;;;;;;5033526;28;20458;-77
2023/07/17 01:42:10;;;;;;;14.90;10.70;;;;;;;;;;5033650;28;20478;-77
2023/07/17 01:44:37;;;;;;;15.10;10.13;;;;;;;;;;5033405;28;20449;-77
2023/07/17 01:47:04;;;;;;;14.00;11.80;;;;;;;;;;5033666;28;20453;-76
2023/07/17 01:49:32;;;;;;;12.33;10.13;;;;;;;;;;5033576;28;20457;-76
2023/07/17 01:51:59;;;;;;;12.70;11.60;;;;;;;;;;5033577;28;20528;-76
2023/07/17 01:54:26;;;;;;;13.10;10.67;;;;;;;;;;5033357;28;20489;-77
2023/07/17 01:56:53;;;;;;;14.47;9.50;;;;;;;;;;5034250;28;20472;-77
2023/07/17 01:59:22;;;;;;;10.97;9.93;;;;;;;;;;5033772;28;20461;-77
2023/07/17 02:01:49;;;;;;;13.17;10.50;;;;;;;;;;5034105;28;20485;-77
2023/07/17 02:04:16;;;;;;;9.90;8.90;;;;;;;;;;5033710;28;20457;-77
2023/07/17 02:06:43;;;;;;;10.23;9.23;;;;;;;;;;5033834;28;20815;-77
2023/07/17 02:09:10;;;;;;;10.67;9.73;;;;;;;;;;5033663;28;20469;-77
2023/07/17 02:11:37;;;;;;;10.70;8.93;;;;;;;;;;5033986;28;20560;-77
2023/07/17 02:14:05;;;;;;;11.73;9.50;;;;;;;;;;5033876;28;20998;-77
2023/07/17 02:16:34;;;;;;;10.90;9.27;;;;;;;;;;5033834;28;20448;-77
2023/07/17 02:19:01;;;;;;;9.53;8.63;;;;;;;;;;5033785;28;20961;-77
2023/07/17 02:21:28;;;;;;;10.60;8.83;;;;;;;;;;5033716;28;20470;-77
2023/07/17 02:23:55;;;;;;;8.33;7.60;;;;;;;;;;5033508;28;20469;-76
2023/07/17 02:26:22;;;;;;;9.33;8.33;;;;;;;;;;5033629;28;20453;-77
2023/07/17 02:28:49;;;;;;;9.47;8.57;;;;;;;;;;5033165;28;20459;-77
2023/07/17 02:31:16;;;;;;;13.60;8.87;;;;;;;;;;5035340;28;20470;-77
2023/07/17 02:33:45;;;;;;;9.20;8.40;;;;;;;;;;5037160;28;20486;-77
2023/07/17 02:36:12;;;;;;;15.63;8.87;;;;;;;;;;5037288;28;20784;-76
2023/07/17 02:38:39;;;;;;;10.53;8.70;;;;;;;;;;5037077;28;20449;-77
2023/07/17 02:41:06;;;;;;;9.10;8.20;;;;;;;;;;5037203;28;20491;-77
2023/07/17 02:43:33;;;;;;;8.80;7.90;;;;;;;;;;5036872;28;20464;-77
2023/07/17 02:46:00;;;;;;;10.37;9.47;;;;;;;;;;5037283;28;20457;-77
2023/07/17 02:48:28;;;;;;;13.50;11.20;;;;;;;;;;5036740;28;20453;-77
2023/07/17 02:50:56;;;;;;;16.37;14.77;;;;;;;;;;5036964;28;20994;-77
2023/07/17 02:53:23;;;;;;;16.73;14.97;;;;;;;;;;5036621;28;20489;-76
2023/07/17 02:55:50;;;;;;;17.53;15.80;;;;;;;;;;5036788;28;20949;-76
2023/07/17 02:58:18;;;;;;;18.53;16.73;;;;;;;;;;5036829;28;20456;-77
2023/07/17 03:00:45;;;;;;;18.87;16.30;;;;;;;;;;5036783;28;20473;-77
2023/07/17 03:03:12;;;;;;;21.17;19.07;;;;;;;;;;5036373;28;20454;-77
2023/07/17 03:05:39;;;;;;;20.13;18.13;;;;;;;;;;5036769;28;20950;-77
2023/07/17 03:08:07;;;;;;;23.77;18.40;;;;;;;;;;5036810;28;20446;-76
2023/07/17 03:10:35;;;;;;;22.23;19.77;;;;;;;;;;5036700;28;20817;-76
2023/07/17 03:13:02;;;;;;;25.30;20.50;;;;;;;;;;5036179;28;20456;-76
2023/07/17 03:15:29;;;;;;;23.10;19.63;;;;;;;;;;5036399;28;20482;-77
2023/07/17 03:17:56;;;;;;;40.90;21.20;;;;;;;;;;5036373;28;20454;-77
2023/07/17 03:20:23;;;;;;;24.73;19.73;;;;;;;;;;5036431;28;20453;-76
2023/07/17 03:22:50;;;;;;;28.07;23.23;;;;;;;;;;5035973;28;20469;-77
2023/07/17 03:25:19;;;;;;;25.33;20.30;;;;;;;;;;5036033;28;20446;-77
2023/07/17 03:27:46;;;;;;;36.77;21.50;;;;;;;;;;5036296;28;20458;-77
2023/07/17 03:30:13;;;;;;;30.00;20.30;;;;;;;;;;5036102;28;20457;-76
2023/07/17 03:32:40;;;;;;;26.73;20.80;;;;;;;;;;5036215;28;20445;-77
2023/07/17 03:35:08;;;;;;;27.67;20.33;;;;;;;;;;5035338;28;20485;-77
2023/07/17 03:37:35;;;;;;;28.80;20.97;;;;;;;;;;5034734;28;20461;-77
2023/07/17 03:40:03;;;;;;;23.37;19.77;;;;;;;;;;5035302;28;20469;-77
2023/07/17 03:42:32;;;;;;;22.40;19.53;;;;;;;;;;5034508;28;20935;-77
2023/07/17 03:45:00;;;;;;;21.60;19.40;;;;;;;;;;5035232;28;20469;-76
2023/07/17 03:47:27;;;;;;;25.40;20.43;;;;;;;;;;5035148;28;20449;-77
2023/07/17 03:49:54;;;;;;;27.40;21.90;;;;;;;;;;5035031;28;20450;-77
2023/07/17 03:52:21;;;;;;;27.43;21.00;;;;;;;;;;5034737;28;20543;-77
2023/07/17 03:54:48;;;;;;;22.13;19.70;;;;;;;;;;5035446;28;20513;-77
2023/07/17 03:57:15;;;;;;;23.40;19.60;;;;;;;;;;5034964;28;20454;-77
2023/07/17 03:59:51;;;;;;;24.03;19.23;;;;;;;;;;5035215;28;20898;-77
2023/07/17 04:02:18;;;;;;;20.50;18.50;;;;;;;;;;5034902;28;20486;-77
2023/07/17 04:04:45;;;;;;;19.13;17.13;;;;;;;;;;5034545;28;20442;-76
2023/07/17 04:07:13;;;;;;;17.93;16.13;;;;;;;;;;5034725;28;20456;-76
2023/07/17 04:09:40;;;;;;;17.93;16.00;;;;;;;;;;5034578;28;20458;-76
2023/07/17 04:12:07;;;;;;;17.90;16.10;;;;;;;;;;5034455;28;20477;-76
2023/07/17 04:14:36;;;;;;;20.50;16.63;;;;;;;;;;5034224;28;20505;-76
2023/07/17 04:17:05;;;;;;;18.70;15.53;;;;;;;;;;5034277;28;20422;-76
2023/07/17 04:19:32;;;;;;;17.57;15.70;;;;;;;;;;5034004;28;20453;-74
2023/07/17 04:21:59;;;;;;;18.10;16.13;;;;;;;;;;5034215;28;20469;-74
2023/07/17 04:24:27;;;;;;;16.33;14.90;;;;;;;;;;5033940;28;20457;-75
2023/07/17 04:26:54;;;;;;;18.60;16.80;;;;;;;;;;5033022;28;20465;-75
2023/07/17 04:29:23;;;;;;;16.80;15.20;;;;;;;;;;5033615;28;20461;-75
2023/07/17 04:31:50;;;;;;;18.20;16.50;;;;;;;;;;5033421;28;20816;-75
2023/07/17 04:34:19;;;;;;;16.97;15.27;;;;;;;;;;5033788;28;20603;-75
2023/07/17 04:36:47;;;;;;;15.60;14.20;;;;;;;;;;5033705;28;20950;-76
2023/07/17 04:39:14;;;;;;;17.50;12.50;;;;;;;;;;5033306;28;20818;-75
2023/07/17 04:41:41;;;;;;;14.90;13.43;;;;;;;;;;5033435;28;20496;-75
2023/07/17 04:44:08;;;;;;;15.03;13.53;;;;;;;;;;5033591;28;20815;-75
2023/07/17 04:46:35;;;;;;;12.80;11.60;;;;;;;;;;5033294;28;20457;-74
2023/07/17 04:49:03;;;;;;;12.63;11.60;;;;;;;;;;5033311;28;20467;-75
2023/07/17 04:51:32;;;;;;;13.93;12.67;;;;;;;;;;5033267;28;20482;-75
2023/07/17 04:53:59;;;;;;;13.00;11.70;;;;;;;;;;5032481;28;20581;-75
2023/07/17 04:56:26;;;;;;;12.13;10.97;;;;;;;;;;5033293;28;20454;-75
2023/07/17 04:58:53;;;;;;;19.50;13.90;;;;;;;;;;5032993;28;20464;-75
2023/07/17 05:01:20;;;;;;;14.97;13.50;;;;;;;;;;5033001;28;20477;-75
2023/07/17 05:03:47;;;;;;;18.00;13.30;;;;;;;;;;5033291;28;20463;-75
2023/07/17 05:06:15;;;;;;;14.47;13.07;;;;;;;;;;5033040;28;20452;-75
2023/07/17 05:08:43;;;;;;;13.27;12.07;;;;;;;;;;5032889;28;20825;-75
2023/07/17 05:11:11;;;;;;;14.03;12.70;;;;;;;;;;5032343;28;20477;-75
2023/07/17 05:13:41;;;;;;;14.73;13.33;;;;;;;;;;5032567;28;20462;-75
2023/07/17 05:16:08;;;;;;;15.63;14.07;;;;;;;;;;5033076;28;20852;-75
2023/07/17 05:18:35;;;;;;;18.07;14.37;;;;;;;;;;5032765;28;20840;-75
2023/07/17 05:21:02;;;;;;;14.33;13.00;;;;;;;;;;5032782;28;20465;-75
2023/07/17 05:23:30;;;;;;;15.13;13.70;;;;;;;;;;5032771;28;20955;-75
2023/07/17 05:25:59;;;;;;;14.40;12.87;;;;;;;;;;5032754;28;20457;-75
2023/07/17 05:28:27;;;;;;;14.53;13.00;;;;;;;;;;5032648;28;20461;-75
2023/07/17 05:30:54;;;;;;;14.30;13.07;;;;;;;;;;5032805;28;20515;-74
2023/07/17 05:33:22;;;;;;;16.00;14.40;;;;;;;;;;5033011;28;20456;-74
2023/07/17 05:35:49;;;;;;;16.87;15.17;;;;;;;;;;5033588;28;20493;-75
2023/07/17 05:38:17;;;;;;;14.93;13.50;;;;;;;;;;5033165;28;20552;-74
2023/07/17 05:40:44;;;;;;;15.23;13.83;;;;;;;;;;5033263;28;20473;-73
2023/07/17 05:43:13;;;;;;;13.67;12.27;;;;;;;;;;5033533;28;20524;-72
2023/07/17 05:45:40;;;;;;;15.00;13.43;;;;;;;;;;5033346;28;20458;-72
2023/07/17 05:48:07;;;;;;;14.97;13.37;;;;;;;;;;5032921;28;20817;-73
2023/07/17 05:50:34;;;;;;;18.10;15.83;;;;;;;;;;5033029;28;20469;-75
2023/07/17 05:53:03;;;;;;;18.87;15.50;;;;;;;;;;5033034;28;20449;-73
2023/07/17 05:55:30;;;;;;;17.67;14.07;;;;;;;;;;5032932;28;20544;-73
2023/07/17 05:57:57;;;;;;;17.10;12.70;;;;;;;;;;5032896;28;20456;-73
2023/07/17 06:00:25;;;;;;;16.30;13.57;;;;;;;;;;5032947;28;20474;-73
2023/07/17 06:02:52;;;;;;;11.83;10.60;;;;;;;;;;5033039;28;20449;-73
2023/07/17 06:05:20;;;;;;;14.97;11.10;;;;;;;;;;5032657;28;20822;-73
2023/07/17 06:07:47;;;;;;;12.30;10.80;;;;;;;;;;5032829;28;20454;-73
2023/07/17 06:10:14;;;;;;;13.90;11.20;;;;;;;;;;5032965;28;20456;-73
2023/07/17 06:12:42;;;;;;;10.13;9.13;;;;;;;;;;5031509;28;20453;-72
2023/07/17 06:15:11;;;;;;;12.60;11.03;;;;;;;;;;5032110;28;21081;-72
2023/07/17 06:17:39;;;;;;;10.23;8.90;;;;;;;;;;5032015;28;20972;-72
2023/07/17 06:20:08;;;;;;;16.67;10.97;;;;;;;;;;5031886;28;20460;-74
2023/07/17 06:22:35;;;;;;;12.57;11.27;;;;;;;;;;5031725;28;20519;-74
2023/07/17 06:25:02;;;;;;;17.13;11.40;;;;;;;;;;5032143;28;20446;-73
2023/07/17 06:27:29;;;;;;;14.00;11.20;;;;;;;;;;5021754;28;20465;-74
2023/07/17 06:29:56;;;;;;;12.10;10.90;;;;;;;;;;5012101;28;20874;-74
2023/07/17 06:32:24;;;;;;;13.17;11.80;;;;;;;;;;5012197;28;20467;-76
2023/07/17 06:34:53;;;;;;;15.80;13.30;;;;;;;;;;5011967;28;20540;-75
2023/07/17 06:37:20;;;;;;;16.93;12.20;;;;;;;;;;5012024;28;20455;-75
2023/07/17 06:39:47;;;;;;;11.50;6.57;;;;;;;;;;5012105;28;20490;-74
2023/07/17 06:42:14;;;;;;;9.30;5.80;;;;;;;;;;5012231;28;20471;-74
2023/07/17 06:44:41;;;;;;;5.20;4.73;;;;;;;;;;5011888;28;20450;-74
2023/07/17 06:47:08;;;;;;;6.13;5.53;;;;;;;;;;5012002;28;20493;-75
2023/07/17 06:49:36;;;;;;;7.37;6.40;;;;;;;;;;5031373;28;20460;-76
2023/07/17 06:52:04;;;;;;;6.77;6.07;;;;;;;;;;5031780;28;20940;-75
2023/07/17 06:54:31;;;;;;;6.60;5.93;;;;;;;;;;5031537;28;20456;-76
2023/07/17 06:56:58;;;;;;;9.83;8.20;;;;;;;;;;5031484;28;20462;-75
2023/07/17 06:59:28;;;;;;;10.10;6.93;;;;;;;;;;5031687;28;20814;-76
2023/07/17 07:01:55;;;;;;;9.27;7.77;;;;;;;;;;5032266;28;20485;-78
2023/07/17 07:04:22;;;;;;;8.53;7.37;;;;;;;;;;5032421;28;20458;-79
2023/07/17 07:06:50;;;;;;;8.77;7.50;;;;;;;;;;5032550;28;20453;-78
2023/07/17 07:09:18;;;;;;;7.50;5.77;;;;;;;;;;5032702;28;20895;-78
2023/07/17 07:11:45;;;;;;;7.90;6.90;;;;;;;;;;5032436;28;20998;-77
2023/07/17 07:14:12;;;;;;;8.20;6.13;;;;;;;;;;5032459;28;20458;-77
2023/07/17 07:16:39;;;;;;;7.63;6.30;;;;;;;;;;5032368;28;20962;-77
2023/07/17 07:19:06;;;;;;;6.90;6.30;;;;;;;;;;5034938;28;20450;-77
2023/07/17 07:21:34;;;;;;;8.43;7.40;;;;;;;;;;5035526;28;20480;-76
2023/07/17 07:24:03;;;;;;;7.80;7.00;;;;;;;;;;5035235;28;20465;-76
2023/07/17 07:26:32;;;;;;;14.10;7.87;;;;;;;;;;5035258;28;20458;-76
2023/07/17 07:28:59;;;;;;;6.80;6.10;;;;;;;;;;5035614;28;20461;-76
2023/07/17 07:31:26;;;;;;;8.13;7.13;;;;;;;;;;5035160;28;20477;-76
2023/07/17 07:33:53;;;;;;;7.67;6.03;;;;;;;;;;5035463;28;20460;-76
2023/07/17 07:36:22;;;;;;;6.33;5.20;;;;;;;;;;5035253;28;20486;-76
2023/07/17 07:38:49;;;;;;;10.70;6.93;;;;;;;;;;5035650;28;20946;-76
2023/07/17 07:41:17;;;;;;;5.33;4.87;;;;;;;;;;5035055;28;20469;-75
2023/07/17 07:43:46;;;;;;;8.30;6.23;;;;;;;;;;5033696;28;20864;-75
2023/07/17 07:46:13;;;;;;;10.63;6.43;;;;;;;;;;5034989;28;20477;-76
2023/07/17 07:48:40;;;;;;;8.83;6.73;;;;;;;;;;5035069;28;20450;-76
2023/07/17 07:51:07;;;;;;;11.83;8.13;;;;;;;;;;5035236;28;20835;-77
2023/07/17 07:53:34;;;;;;;7.70;6.83;;;;;;;;;;5035016;28;20462;-77
2023/07/17 07:56:01;;;;;;;7.80;6.20;;;;;;;;;;5035238;28;20588;-75
2023/07/17 07:58:28;;;;;;;9.50;6.70;;;;;;;;;;5035312;28;20950;-77
2023/07/17 08:00:56;;;;;;;7.60;6.90;;;;;;;;;;5035589;28;20545;-77
2023/07/17 08:03:23;;;;;;;8.13;7.23;;;;;;;;;;5035168;28;20465;-76
2023/07/17 08:05:50;;;;;;;8.90;6.77;;;;;;;;;;5035130;28;20446;-76
2023/07/17 08:08:18;;;;;;;8.77;7.00;;;;;;;;;;5034680;28;20468;-76
2023/07/17 08:10:45;;;;;;;12.20;7.40;;;;;;;;;;5034932;28;20491;-76
2023/07/17 08:13:12;;;;;;;7.60;6.63;;;;;;;;;;5034632;28;20460;-76
2023/07/17 08:15:39;;;;;;;8.27;6.60;;;;;;;;;;5034896;28;20474;-76
2023/07/17 08:18:07;;;;;;;8.20;6.90;;;;;;;;;;5034905;28;20454;-76
2023/07/17 08:20:35;;;;;;;7.43;6.03;;;;;;;;;;5034400;28;20480;-75
2023/07/17 08:23:02;;;;;;;10.07;6.77;;;;;;;;;;5034365;28;20466;-76
2023/07/17 08:25:29;;;;;;;7.20;6.50;;;;;;;;;;5034687;28;20446;-76
2023/07/17 08:27:56;;;;;;;7.80;7.00;;;;;;;;;;5034670;28;20813;-76
2023/07/17 08:30:23;;;;;;;9.40;8.50;;;;;;;;;;5034113;28;20462;-76
2023/07/17 08:32:50;;;;;;;10.63;7.60;;;;;;;;;;5034647;28;20938;-76
2023/07/17 08:35:19;;;;;;;9.13;7.80;;;;;;;;;;5034401;28;20494;-76
2023/07/17 08:37:46;;;;;;;7.07;6.47;;;;;;;;;;5034218;28;20446;-76
2023/07/17 08:40:14;;;;;;;7.80;7.10;;;;;;;;;;5034423;28;20927;-76
2023/07/17 08:42:45;;;;;;;9.43;7.37;;;;;;;;;;5034446;28;20446;-76
2023/07/17 08:45:12;;;;;;;8.60;7.43;;;;;;;;;;5034110;28;20517;-76
2023/07/17 08:47:40;;;;;;;8.63;7.17;;;;;;;;;;5034319;28;20816;-76
2023/07/17 08:50:09;;;;;;;8.13;6.50;;;;;;;;;;5033944;28;20453;-76
2023/07/17 08:52:37;;;;;;;10.03;7.30;;;;;;;;;;5034221;28;20804;-76
2023/07/17 08:55:04;;;;;;;7.43;6.63;;;;;;;;;;5033921;28;20461;-76
2023/07/17 08:57:32;;;;;;;7.33;6.70;;;;;;;;;;5033792;28;20457;-77
2023/07/17 09:00:00;;;;;;;7.93;6.10;;;;;;;;;;5033801;28;20454;-77
2023/07/17 09:02:27;;;;;;;7.03;5.90;;;;;;;;;;5033921;28;20484;-77
2023/07/17 09:04:54;;;;;;;13.90;10.77;;;;;;;;;;5033767;28;20451;-76
2023/07/17 09:07:21;;;;;;;5.87;5.37;;;;;;;;;;5033997;28;20445;-77
2023/07/17 09:10:09;;;;;;;9.20;5.67;;;;;;;;;;5033970;28;20446;-76
2023/07/17 09:12:37;;;;;;;7.00;5.77;;;;;;;;;;5033520;28;20837;-76
2023/07/17 09:15:04;;;;;;;6.33;5.73;;;;;;;;;;5033583;28;20923;-76
2023/07/17 09:17:34;;;;;;;8.50;6.80;;;;;;;;;;5033561;28;20454;-76
2023/07/17 09:20:08;;;;;;;6.80;6.10;;;;;;;;;;5033415;28;20445;-75
2023/07/17 09:22:36;;;;;;;6.13;5.60;;;;;;;;;;5033611;28;20472;-75
2023/07/17 09:25:04;;;;;;;5.53;5.03;;;;;;;;;;5033387;28;20456;-75
2023/07/17 09:27:32;;;;;;;7.23;5.50;;;;;;;;;;5033600;28;20939;-76
2023/07/17 09:30:09;;;;;;;5.83;4.90;;;;;;;;;;5033569;28;20457;-76
2023/07/17 09:32:36;;;;;;;5.60;5.10;;;;;;;;;;5033764;28;20442;-77
2023/07/17 09:35:05;;;;;;;9.73;4.80;;;;;;;;;;5033286;28;20450;-76
2023/07/17 09:37:32;;;;;;;9.37;5.60;;;;;;;;;;5033425;28;20485;-76
2023/07/17 09:39:59;;;;;;;6.47;4.60;;;;;;;;;;5032594;28;20461;-76
2023/07/17 09:42:30;;;;;;;5.67;5.17;;;;;;;;;;5033354;28;20493;-76
2023/07/17 09:44:57;;;;;;;5.77;5.27;;;;;;;;;;5033488;28;20496;-76
2023/07/17 09:47:24;;;;;;;5.97;5.37;;;;;;;;;;5033312;28;20446;-76
2023/07/17 09:49:52;;;;;;;6.47;4.70;;;;;;;;;;5033027;28;20462;-76
2023/07/17 09:52:20;;;;;;;4.70;4.30;;;;;;;;;;5032820;28;20478;-75
2023/07/17 09:54:48;;;;;;;6.13;4.97;;;;;;;;;;5032945;28;20460;-75
2023/07/17 09:57:18;;;;;;;7.57;5.60;;;;;;;;;;5032814;28;20493;-75
2023/07/17 09:59:50;;;;;;;6.50;6.00;;;;;;;;;;5032992;28;20449;-75
2023/07/17 10:02:18;;;;;;;5.97;5.37;;;;;;;;;;5033081;28;20963;-76
2023/07/17 10:04:49;;;;;;;6.30;5.70;;;;;;;;;;5032974;28;20450;-75
2023/07/17 10:07:16;;;;;;;6.63;5.93;;;;;;;;;;5033352;28;20513;-75
2023/07/17 10:09:44;;;;;;;6.30;4.80;;;;;;;;;;5032708;28;20461;-75
2023/07/17 10:12:12;;;;;;;6.37;5.70;;;;;;;;;;5032807;28;20978;-73
2023/07/17 10:14:39;;;;;;;5.50;5.00;;;;;;;;;;5031983;28;20450;-74
2023/07/17 10:17:23;;;;;;;5.03;4.63;;;;;;;;;;5032288;28;20492;-74
2023/07/17 10:19:50;;;;;;;5.37;4.07;;;;;;;;;;5032294;28;20493;-74
2023/07/17 10:22:17;;;;;;;6.03;5.53;;;;;;;;;;5032402;28;20481;-74
2023/07/17 10:24:45;;;;;;;7.67;5.50;;;;;;;;;;5032520;28;20453;-74
2023/07/17 10:27:12;;;;;;;5.23;4.73;;;;;;;;;;5032315;28;20677;-74
2023/07/17 10:29:42;;;;;;;4.90;4.47;;;;;;;;;;5032346;28;20453;-74
2023/07/17 10:32:14;;;;;;;9.67;8.40;;;;;;;;;;5032572;28;21005;-74
2023/07/17 10:34:49;;;;;;;5.10;4.70;;;;;;;;;;5032357;28;20446;-74
2023/07/17 10:37:20;;;;;;;6.00;5.00;;;;;;;;;;5032092;28;20480;-74
2023/07/17 10:39:47;;;;;;;5.97;5.37;;;;;;;;;;5032300;28;20513;-74
2023/07/17 10:42:14;;;;;;;6.07;5.47;;;;;;;;;;5032299;28;20481;-74
2023/07/17 10:44:42;;;;;;;6.70;5.40;;;;;;;;;;5032401;28;20449;-74
2023/07/17 10:47:09;;;;;;;5.20;4.70;;;;;;;;;;5032083;28;20438;-74
2023/07/17 10:49:38;;;;;;;7.97;5.70;;;;;;;;;;5032165;28;20461;-74
2023/07/17 10:52:05;;;;;;;5.57;4.47;;;;;;;;;;5033774;28;20469;-74
2023/07/17 10:54:32;;;;;;;5.13;4.50;;;;;;;;;;5035996;28;20518;-74
2023/07/17 10:56:59;;;;;;;6.40;5.30;;;;;;;;;;5036011;28;20998;-74
2023/07/17 10:59:27;;;;;;;5.67;5.17;;;;;;;;;;5035906;28;20449;-74
2023/07/17 11:02:00;;;;;;;4.97;4.47;;;;;;;;;;5035838;28;20469;-74
2023/07/17 11:04:27;;;;;;;5.70;5.07;;;;;;;;;;5035945;28;20454;-74
2023/07/17 11:07:08;;;;;;;5.00;4.50;;;;;;;;;;5035796;28;20529;-74
2023/07/17 11:09:35;;;;;;;7.37;5.87;;;;;;;;;;5035733;28;20984;-74
2023/07/17 11:12:02;;;;;;;4.40;4.00;;;;;;;;;;5035654;28;20484;-74
2023/07/17 11:14:30;;;;;;;5.90;5.30;;;;;;;;;;5035116;28;20556;-74
2023/07/17 11:16:57;;;;;;;5.10;4.70;;;;;;;;;;5035556;28;21001;-74
2023/07/17 11:19:24;;;;;;;7.07;4.43;;;;;;;;;;5035559;28;20458;-74
2023/07/17 11:21:51;;;;;;;17.23;4.80;;;;;;;;;;5035794;28;20461;-74
2023/07/17 11:24:20;;;;;;;7.77;5.00;;;;;;;;;;5035350;28;20466;-75
2023/07/17 11:26:48;;;;;;;7.33;4.40;;;;;;;;;;5035409;28;20441;-74
2023/07/17 11:29:15;;;;;;;6.33;5.17;;;;;;;;;;5035544;28;20540;-74
2023/07/17 11:31:42;;;;;;;4.63;4.17;;;;;;;;;;5035342;28;20490;-75
2023/07/17 11:34:10;;;;;;;5.03;4.53;;;;;;;;;;5035707;28;20462;-76
2023/07/17 11:36:41;;;;;;;5.10;4.60;;;;;;;;;;5035129;28;21002;-76
2023/07/17 11:39:10;;;;;;;4.63;4.10;;;;;;;;;;5035067;28;20496;-76
2023/07/17 11:41:46;;;;;;;10.67;4.37;;;;;;;;;;5035132;28;20535;-76
2023/07/17 11:44:13;;;;;;;4.73;4.20;;;;;;;;;;5035156;28;20449;-76
2023/07/17 11:46:41;;;;;;;4.63;4.23;;;;;;;;;;5035016;28;20453;-74
2023/07/17 11:49:08;;;;;;;5.70;4.37;;;;;;;;;;5034905;28;20462;-75
2023/07/17 11:51:35;;;;;;;7.27;4.50;;;;;;;;;;5034973;28;20469;-74
2023/07/17 11:54:02;;;;;;;6.40;4.53;;;;;;;;;;5035030;28;20938;-75
2023/07/17 11:56:36;;;;;;;5.23;3.90;;;;;;;;;;5034869;28;20489;-75
2023/07/17 11:59:05;;;;;;;6.23;4.40;;;;;;;;;;5034751;28;20449;-74
2023/07/17 12:01:33;;;;;;;4.40;3.90;;;;;;;;;;5034593;28;20466;-74
2023/07/17 12:04:14;;;;;;;4.10;3.70;;;;;;;;;;5034197;28;20476;-74
2023/07/17 12:06:42;;;;;;;4.13;3.80;;;;;;;;;;5034781;28;20818;-74
2023/07/17 12:09:09;;;;;;;4.53;3.83;;;;;;;;;;5034707;28;20456;-74
2023/07/17 12:11:36;;;;;;;9.10;4.83;;;;;;;;;;5034775;28;20469;-74
2023/07/17 12:14:05;;;;;;;5.80;4.87;;;;;;;;;;5034092;28;20461;-76
2023/07/17 12:16:32;;;;;;;4.80;4.30;;;;;;;;;;5034311;28;20994;-75
2023/07/17 12:18:59;;;;;;;4.83;4.43;;;;;;;;;;5034049;28;20477;-73
2023/07/17 12:21:26;;;;;;;4.10;3.73;;;;;;;;;;5034118;28;20474;-75
2023/07/17 12:23:53;;;;;;;4.33;4.00;;;;;;;;;;5034311;28;20469;-73
2023/07/17 12:26:20;;;;;;;6.10;4.20;;;;;;;;;;5034249;28;20456;-75
2023/07/17 12:28:48;;;;;;;5.10;4.60;;;;;;;;;;5034011;28;20453;-75
2023/07/17 12:31:16;;;;;;;4.30;3.90;;;;;;;;;;5034094;28;20477;-75
2023/07/17 12:33:44;;;;;;;4.30;3.90;;;;;;;;;;5034175;28;20871;-73
2023/07/17 12:36:11;;;;;;;5.63;3.40;;;;;;;;;;5034082;28;20503;-75
2023/07/17 12:38:38;;;;;;;6.30;3.47;;;;;;;;;;5033848;28;20458;-75
2023/07/17 12:41:05;;;;;;;4.93;3.93;;;;;;;;;;5034112;28;20838;-75
2023/07/17 12:43:32;;;;;;;3.13;2.83;;;;;;;;;;5033950;28;20458;-75
2023/07/17 12:45:59;;;;;;;4.93;4.50;;;;;;;;;;5034033;28;20808;-75
2023/07/17 12:48:28;;;;;;;3.40;3.10;;;;;;;;;;5033715;28;20449;-75
2023/07/17 12:50:55;;;;;;;2.83;2.53;;;;;;;;;;5033985;28;20987;-74
2023/07/17 12:53:22;;;;;;;3.13;2.93;;;;;;;;;;5033887;28;20458;-75
2023/07/17 12:55:49;;;;;;;4.10;3.33;;;;;;;;;;5033895;28;20458;-74
2023/07/17 12:58:16;;;;;;;3.37;3.13;;;;;;;;;;5033452;28;20497;-75
2023/07/17 13:00:44;;;;;;;4.07;3.67;;;;;;;;;;5033758;28;20480;-75
2023/07/17 13:03:11;;;;;;;3.80;3.50;;;;;;;;;;5033760;28;20457;-75
2023/07/17 13:05:39;;;;;;;3.67;3.37;;;;;;;;;;5033601;28;20464;-75
2023/07/17 13:08:06;;;;;;;3.80;3.50;;;;;;;;;;5033431;28;20452;-75
2023/07/17 13:10:34;;;;;;;9.43;7.10;;;;;;;;;;5033356;28;20651;-75
2023/07/17 13:13:01;;;;;;;4.23;3.03;;;;;;;;;;5033180;28;20454;-75
2023/07/17 13:15:28;;;;;;;4.10;3.70;;;;;;;;;;5032638;28;20462;-75
2023/07/17 13:17:55;;;;;;;4.03;3.60;;;;;;;;;;5033146;28;20481;-75
2023/07/17 13:20:22;;;;;;;7.70;5.87;;;;;;;;;;5033309;28;20825;-75
2023/07/17 13:22:50;;;;;;;7.10;4.10;;;;;;;;;;5033217;28;20477;-75
2023/07/17 13:25:18;;;;;;;4.77;4.30;;;;;;;;;;5033293;28;20450;-75
2023/07/17 13:27:46;;;;;;;5.40;4.40;;;;;;;;;;5033093;28;20445;-74
2023/07/17 13:30:13;;;;;;;4.43;4.03;;;;;;;;;;5033122;28;20462;-74
2023/07/17 13:32:40;;;;;;;4.60;4.10;;;;;;;;;;5033141;28;20962;-74
2023/07/17 13:35:08;;;;;;;5.00;4.47;;;;;;;;;;5033113;28;20461;-74
2023/07/17 13:37:35;;;;;;;7.40;4.40;;;;;;;;;;5032665;28;20592;-73
2023/07/17 13:40:04;;;;;;;5.33;3.90;;;;;;;;;;5033420;28;20450;-73
2023/07/17 13:42:31;;;;;;;4.60;4.00;;;;;;;;;;5032907;28;20453;-74
2023/07/17 13:44:59;;;;;;;5.10;3.60;;;;;;;;;;5032876;28;20468;-73
2023/07/17 13:47:27;;;;;;;3.40;3.10;;;;;;;;;;5032891;28;20454;-74
2023/07/17 13:49:54;;;;;;;6.40;3.27;;;;;;;;;;5032811;28;20460;-76
2023/07/17 13:52:21;;;;;;;4.70;4.30;;;;;;;;;;5032712;28;21007;-73
2023/07/17 13:54:48;;;;;;;4.70;4.30;;;;;;;;;;5033058;28;20458;-74
2023/07/17 13:57:16;;;;;;;4.33;3.93;;;;;;;;;;5032571;28;20481;-73
2023/07/17 13:59:43;;;;;;;4.90;4.40;;;;;;;;;;5033133;28;20457;-75
2023/07/17 14:02:10;;;;;;;4.93;4.40;;;;;;;;;;5032649;28;20473;-73
2023/07/17 14:04:38;;;;;;;7.63;4.50;;;;;;;;;;5032633;28;20462;-75
2023/07/17 14:07:05;;;;;;;5.47;4.60;;;;;;;;;;5032542;28;20457;-73
2023/07/17 14:09:32;;;;;;;5.90;4.00;;;;;;;;;;5032705;28;20472;-73
2023/07/17 14:12:00;;;;;;;5.67;3.97;;;;;;;;;;5032463;28;20470;-73
2023/07/17 14:14:29;;;;;;;6.00;4.57;;;;;;;;;;5032558;28;20446;-73
2023/07/17 14:16:56;;;;;;;5.53;5.03;;;;;;;;;;5032508;28;20504;-75
2023/07/17 14:19:23;;;;;;;5.23;4.73;;;;;;;;;;5032816;28;20793;-74
2023/07/17 14:21:50;;;;;;;5.30;4.03;;;;;;;;;;5032496;28;20473;-73
2023/07/17 14:24:18;;;;;;;4.37;4.07;;;;;;;;;;5032463;28;20473;-73
2023/07/17 14:26:45;;;;;;;4.93;4.53;;;;;;;;;;5033716;28;20548;-74
2023/07/17 14:29:12;;;;;;;5.73;4.40;;;;;;;;;;5036618;28;20450;-74
2023/07/17 14:31:40;;;;;;;4.87;4.37;;;;;;;;;;5036859;28;20481;-73
2023/07/17 14:34:08;;;;;;;5.47;4.00;;;;;;;;;;5036422;28;20460;-73
2023/07/17 14:36:35;;;;;;;5.40;4.80;;;;;;;;;;5036288;28;20457;-73
2023/07/17 14:39:02;;;;;;;4.30;3.90;;;;;;;;;;5036168;28;20485;-73